sensor_id;sensor_type;location;lat;lon;timestamp;P1;durP1;ratioP1;P2;durP2;ratioP2
26020;SDS011;13798;48.858;9.092;2022-07-29T07:28:55;5.45;;;4.35;;
26020;SDS011;13798;48.858;9.092;2022-07-29T07:31:21;5.07;;;4.40;;
26020;SDS011;13798;48.858;9.092;2022-07-29T07:33:47;5.53;;;4.57;;
26020;SDS011;13798;48.858;9.092;2022-07-29T07:36:13;5.63;;;4.93;;
26020;SDS011;13798;48.858;9.092;2022-07-29T07:38:38;5.30;;;4.80;;
26020;SDS011;13798;48.858;9.092;2022-07-29T07:41:11;5.70;;;4.85;;
26020;SDS011;13798;48.858;9.092;2022-07-29T07:43:37;7.30;;;4.60;;
26020;SDS011;13798;48.858;9.092;2022-07-29T07:46:02;5.10;;;4.50;;
26020;SDS011;13798;48.858;9.092;2022-07-29T07:48:29;5.20;;;4.40;;
26020;SDS011;13798;48.858;9.092;2022-07-29T07:50:55;6.18;;;5.53;;
26020;SDS011;13798;48.858;9.092;2022-07-29T07:53:20;6.67;;;4.70;;
26020;SDS011;13798;48.858;9.092;2022-07-29T07:55:46;5.25;;;4.65;;
26020;SDS011;13798;48.858;9.092;2022-07-29T07:58:12;4.90;;;4.40;;
26020;SDS011;13798;48.858;9.092;2022-07-29T08:00:37;5.53;;;4.70;;
26020;SDS011;13798;48.858;9.092;2022-07-29T08:03:03;6.33;;;5.17;;
26020;SDS011;13798;48.858;9.092;2022-07-29T08:05:28;5.57;;;5.07;;
26020;SDS011;13798;48.858;9.092;2022-07-29T08:07:54;6.13;;;5.20;;
26020;SDS011;13798;48.858;9.092;2022-07-29T08:10:20;5.33;;;4.80;;
26020;SDS011;13798;48.858;9.092;2022-07-29T08:13:06;6.30;;;4.63;;
26020;SDS011;13798;48.858;9.092;2022-07-29T08:15:33;4.70;;;4.25;;
26020;SDS011;13798;48.858;9.092;2022-07-29T08:17:59;7.82;;;4.50;;
26020;SDS011;13798;48.858;9.092;2022-07-29T08:20:25;6.07;;;4.73;;
26020;SDS011;13798;48.858;9.092;2022-07-29T08:22:50;6.07;;;4.53;;
26020;SDS011;13798;48.858;9.092;2022-07-29T08:25:16;5.93;;;4.63;;
26020;SDS011;13798;48.858;9.092;2022-07-29T08:27:45;5.35;;;4.50;;
26020;SDS011;13798;48.858;9.092;2022-07-29T08:30:13;6.57;;;4.68;;
26020;SDS011;13798;48.858;9.092;2022-07-29T08:32:39;7.27;;;4.67;;
26020;SDS011;13798;48.858;9.092;2022-07-29T08:35:05;5.80;;;4.57;;
26020;SDS011;13798;48.858;9.092;2022-07-29T08:37:31;5.65;;;4.70;;
26020;SDS011;13798;48.858;9.092;2022-07-29T08:39:56;8.10;;;5.00;;
26020;SDS011;13798;48.858;9.092;2022-07-29T08:42:22;7.50;;;4.60;;
26020;SDS011;13798;48.858;9.092;2022-07-29T08:44:47;6.50;;;4.53;;
26020;SDS011;13798;48.858;9.092;2022-07-29T08:47:14;5.90;;;4.33;;
26020;SDS011;13798;48.858;9.092;2022-07-29T08:49:39;6.82;;;4.95;;
26020;SDS011;13798;48.858;9.092;2022-07-29T08:52:05;4.80;;;4.30;;
26020;SDS011;13798;48.858;9.092;2022-07-29T08:54:31;8.00;;;5.15;;
26020;SDS011;13798;48.858;9.092;2022-07-29T08:57:00;6.57;;;5.17;;
26020;SDS011;13798;48.858;9.092;2022-07-29T08:59:27;7.25;;;4.38;;
26020;SDS011;13798;48.858;9.092;2022-07-29T09:01:54;5.30;;;4.80;;
26020;SDS011;13798;48.858;9.092;2022-07-29T09:04:24;7.70;;;5.07;;
26020;SDS011;13798;48.858;9.092;2022-07-29T09:06:54;6.20;;;5.05;;
26020;SDS011;13798;48.858;9.092;2022-07-29T09:09:25;8.23;;;5.25;;
26020;SDS011;13798;48.858;9.092;2022-07-29T09:11:50;5.70;;;4.88;;
26020;SDS011;13798;48.858;9.092;2022-07-29T09:14:18;5.22;;;4.72;;
26020;SDS011;13798;48.858;9.092;2022-07-29T09:16:48;7.25;;;5.32;;
26020;SDS011;13798;48.858;9.092;2022-07-29T09:19:31;5.88;;;5.20;;
26020;SDS011;13798;48.858;9.092;2022-07-29T09:22:00;8.30;;;5.72;;
26020;SDS011;13798;48.858;9.092;2022-07-29T09:24:36;9.93;;;5.63;;
26020;SDS011;13798;48.858;9.092;2022-07-29T09:27:18;7.57;;;5.78;;
26020;SDS011;13798;48.858;9.092;2022-07-29T09:29:46;7.53;;;5.82;;
26020;SDS011;13798;48.858;9.092;2022-07-29T09:32:12;7.00;;;5.75;;
26020;SDS011;13798;48.858;9.092;2022-07-29T09:34:38;6.97;;;5.50;;
26020;SDS011;13798;48.858;9.092;2022-07-29T09:37:03;6.15;;;5.22;;
26020;SDS011;13798;48.858;9.092;2022-07-29T09:39:34;9.32;;;5.60;;
26020;SDS011;13798;48.858;9.092;2022-07-29T09:42:10;6.50;;;4.90;;
26020;SDS011;13798;48.858;9.092;2022-07-29T09:44:49;5.60;;;5.10;;
26020;SDS011;13798;48.858;9.092;2022-07-29T09:47:15;6.72;;;4.65;;
26020;SDS011;13798;48.858;9.092;2022-07-29T09:49:53;8.20;;;4.82;;
26020;SDS011;13798;48.858;9.092;2022-07-29T09:52:19;6.38;;;4.45;;
26020;SDS011;13798;48.858;9.092;2022-07-29T09:54:45;8.73;;;4.50;;
26020;SDS011;13798;48.858;9.092;2022-07-29T09:57:22;7.97;;;4.50;;
26020;SDS011;13798;48.858;9.092;2022-07-29T09:59:56;5.75;;;4.40;;
26020;SDS011;13798;48.858;9.092;2022-07-29T10:02:28;6.47;;;4.15;;
26020;SDS011;13798;48.858;9.092;2022-07-29T10:04:55;6.80;;;4.57;;
26020;SDS011;13798;48.858;9.092;2022-07-29T10:07:21;7.75;;;4.80;;
26020;SDS011;13798;48.858;9.092;2022-07-29T10:09:54;6.60;;;4.63;;
26020;SDS011;13798;48.858;9.092;2022-07-29T10:12:20;7.73;;;4.57;;
26020;SDS011;13798;48.858;9.092;2022-07-29T10:14:46;6.67;;;4.97;;
26020;SDS011;13798;48.858;9.092;2022-07-29T10:17:13;6.07;;;4.85;;
26020;SDS011;13798;48.858;9.092;2022-07-29T10:19:40;5.63;;;4.80;;
26020;SDS011;13798;48.858;9.092;2022-07-29T10:22:07;9.57;;;5.00;;
26020;SDS011;13798;48.858;9.092;2022-07-29T10:24:34;5.57;;;4.55;;
26020;SDS011;13798;48.858;9.092;2022-07-29T10:27:01;6.30;;;4.68;;
26020;SDS011;13798;48.858;9.092;2022-07-29T10:29:28;6.32;;;5.38;;
26020;SDS011;13798;48.858;9.092;2022-07-29T10:43:52;7.90;;;5.07;;
26020;SDS011;13798;48.858;9.092;2022-07-29T10:46:34;6.57;;;5.15;;
26020;SDS011;13798;48.858;9.092;2022-07-29T10:49:14;5.97;;;5.28;;
26020;SDS011;13798;48.858;9.092;2022-07-29T10:59:41;7.43;;;4.95;;
26020;SDS011;13798;48.858;9.092;2022-07-29T11:05:16;5.55;;;4.45;;
26020;SDS011;13798;48.858;9.092;2022-07-29T11:10:41;6.13;;;5.07;;
26020;SDS011;13798;48.858;9.092;2022-07-29T11:13:07;5.30;;;4.67;;
26020;SDS011;13798;48.858;9.092;2022-07-29T11:18:18;8.07;;;4.47;;
26020;SDS011;13798;48.858;9.092;2022-07-29T11:20:44;7.13;;;4.80;;
26020;SDS011;13798;48.858;9.092;2022-07-29T11:23:31;7.32;;;4.93;;
26020;SDS011;13798;48.858;9.092;2022-07-29T11:28:52;7.65;;;4.78;;
26020;SDS011;13798;48.858;9.092;2022-07-29T11:31:38;9.15;;;5.30;;
26020;SDS011;13798;48.858;9.092;2022-07-29T11:34:23;7.22;;;4.40;;
26020;SDS011;13798;48.858;9.092;2022-07-29T11:40:08;5.80;;;4.20;;
26020;SDS011;13798;48.858;9.092;2022-07-29T11:47:31;7.90;;;4.60;;
26020;SDS011;13798;48.858;9.092;2022-07-29T11:50:00;6.13;;;4.60;;
26020;SDS011;13798;48.858;9.092;2022-07-29T11:52:39;7.15;;;4.75;;
26020;SDS011;13798;48.858;9.092;2022-07-29T11:55:14;7.22;;;4.47;;
26020;SDS011;13798;48.858;9.092;2022-07-29T11:57:54;8.32;;;4.43;;
26020;SDS011;13798;48.858;9.092;2022-07-29T12:03:04;6.00;;;4.40;;
26020;SDS011;13798;48.858;9.092;2022-07-29T12:05:32;5.40;;;4.32;;
26020;SDS011;13798;48.858;9.092;2022-07-29T12:08:08;6.25;;;4.22;;
26020;SDS011;13798;48.858;9.092;2022-07-29T12:10:39;6.47;;;4.22;;
26020;SDS011;13798;48.858;9.092;2022-07-29T12:13:06;6.75;;;4.50;;
26020;SDS011;13798;48.858;9.092;2022-07-29T12:15:32;6.47;;;4.05;;
26020;SDS011;13798;48.858;9.092;2022-07-29T12:17:58;7.53;;;4.47;;
26020;SDS011;13798;48.858;9.092;2022-07-29T12:20:27;5.57;;;4.63;;
26020;SDS011;13798;48.858;9.092;2022-07-29T12:22:54;4.53;;;3.92;;
26020;SDS011;13798;48.858;9.092;2022-07-29T12:25:20;5.07;;;4.57;;
26020;SDS011;13798;48.858;9.092;2022-07-29T12:27:47;5.32;;;4.32;;
26020;SDS011;13798;48.858;9.092;2022-07-29T12:30:22;6.57;;;4.37;;
26020;SDS011;13798;48.858;9.092;2022-07-29T12:32:47;6.03;;;4.68;;
26020;SDS011;13798;48.858;9.092;2022-07-29T12:35:18;6.00;;;4.60;;
26020;SDS011;13798;48.858;9.092;2022-07-29T12:37:44;6.93;;;4.55;;
26020;SDS011;13798;48.858;9.092;2022-07-29T12:40:16;4.80;;;4.03;;
26020;SDS011;13798;48.858;9.092;2022-07-29T12:45:34;6.65;;;4.45;;
26020;SDS011;13798;48.858;9.092;2022-07-29T12:48:06;5.78;;;3.90;;
26020;SDS011;13798;48.858;9.092;2022-07-29T12:50:36;6.95;;;4.25;;
26020;SDS011;13798;48.858;9.092;2022-07-29T12:53:35;5.30;;;4.05;;
26020;SDS011;13798;48.858;9.092;2022-07-29T12:56:14;4.63;;;4.10;;
26020;SDS011;13798;48.858;9.092;2022-07-29T13:01:24;6.90;;;4.20;;
26020;SDS011;13798;48.858;9.092;2022-07-29T13:09:08;4.88;;;4.07;;
26020;SDS011;13798;48.858;9.092;2022-07-29T13:11:42;4.75;;;4.10;;
26020;SDS011;13798;48.858;9.092;2022-07-29T13:14:10;5.57;;;4.47;;
26020;SDS011;13798;48.858;9.092;2022-07-29T13:16:40;6.40;;;4.60;;
26020;SDS011;13798;48.858;9.092;2022-07-29T13:19:34;5.50;;;4.35;;
26020;SDS011;13798;48.858;9.092;2022-07-29T13:22:11;7.13;;;4.20;;
26020;SDS011;13798;48.858;9.092;2022-07-29T13:24:46;7.30;;;4.43;;
26020;SDS011;13798;48.858;9.092;2022-07-29T13:27:20;9.05;;;4.60;;
26020;SDS011;13798;48.858;9.092;2022-07-29T13:29:47;5.50;;;3.88;;
26020;SDS011;13798;48.858;9.092;2022-07-29T13:32:17;4.57;;;4.05;;
26020;SDS011;13798;48.858;9.092;2022-07-29T13:34:43;6.30;;;4.18;;
26020;SDS011;13798;48.858;9.092;2022-07-29T13:37:09;7.90;;;3.60;;
26020;SDS011;13798;48.858;9.092;2022-07-29T13:39:38;7.50;;;3.80;;
26020;SDS011;13798;48.858;9.092;2022-07-29T13:42:07;4.63;;;3.25;;
26020;SDS011;13798;48.858;9.092;2022-07-29T13:44:33;4.20;;;3.60;;
26020;SDS011;13798;48.858;9.092;2022-07-29T13:47:02;4.80;;;3.72;;
26020;SDS011;13798;48.858;9.092;2022-07-29T13:49:27;4.03;;;3.63;;
26020;SDS011;13798;48.858;9.092;2022-07-29T13:51:53;4.63;;;4.00;;
26020;SDS011;13798;48.858;9.092;2022-07-29T13:54:19;3.97;;;3.57;;
26020;SDS011;13798;48.858;9.092;2022-07-29T13:56:44;3.85;;;3.47;;
26020;SDS011;13798;48.858;9.092;2022-07-29T13:59:10;3.90;;;3.28;;
26020;SDS011;13798;48.858;9.092;2022-07-29T14:01:36;3.97;;;3.57;;
26020;SDS011;13798;48.858;9.092;2022-07-29T14:04:02;5.07;;;3.70;;
26020;SDS011;13798;48.858;9.092;2022-07-29T14:06:28;4.70;;;3.72;;
26020;SDS011;13798;48.858;9.092;2022-07-29T14:08:53;4.57;;;3.70;;
26020;SDS011;13798;48.858;9.092;2022-07-29T14:11:19;4.32;;;3.42;;
26020;SDS011;13798;48.858;9.092;2022-07-29T14:13:45;5.13;;;3.80;;
26020;SDS011;13798;48.858;9.092;2022-07-29T14:16:10;6.77;;;3.77;;
26020;SDS011;13798;48.858;9.092;2022-07-29T14:18:36;5.63;;;3.75;;
26020;SDS011;13798;48.858;9.092;2022-07-29T14:21:02;8.33;;;3.97;;
26020;SDS011;13798;48.858;9.092;2022-07-29T14:23:28;5.20;;;3.90;;
26020;SDS011;13798;48.858;9.092;2022-07-29T14:25:56;4.45;;;3.83;;
26020;SDS011;13798;48.858;9.092;2022-07-29T14:28:21;4.65;;;4.03;;
26020;SDS011;13798;48.858;9.092;2022-07-29T14:30:47;4.90;;;3.73;;
26020;SDS011;13798;48.858;9.092;2022-07-29T14:33:12;6.40;;;4.10;;
26020;SDS011;13798;48.858;9.092;2022-07-29T14:35:38;7.38;;;3.88;;
26020;SDS011;13798;48.858;9.092;2022-07-29T14:38:04;6.57;;;3.97;;
26020;SDS011;13798;48.858;9.092;2022-07-29T14:40:29;6.82;;;3.70;;
26020;SDS011;13798;48.858;9.092;2022-07-29T14:42:55;3.93;;;3.50;;
26020;SDS011;13798;48.858;9.092;2022-07-29T14:45:20;4.97;;;3.80;;
26020;SDS011;13798;48.858;9.092;2022-07-29T14:47:47;5.72;;;3.85;;
26020;SDS011;13798;48.858;9.092;2022-07-29T14:50:14;12.52;;;4.13;;
26020;SDS011;13798;48.858;9.092;2022-07-29T14:52:40;6.37;;;3.80;;
26020;SDS011;13798;48.858;9.092;2022-07-29T14:55:05;8.48;;;4.13;;
26020;SDS011;13798;48.858;9.092;2022-07-29T14:57:31;6.17;;;3.70;;
26020;SDS011;13798;48.858;9.092;2022-07-29T14:59:57;8.05;;;3.70;;
26020;SDS011;13798;48.858;9.092;2022-07-29T15:02:22;5.07;;;3.70;;
26020;SDS011;13798;48.858;9.092;2022-07-29T15:04:48;5.50;;;3.73;;
26020;SDS011;13798;48.858;9.092;2022-07-29T15:07:14;6.20;;;3.40;;
26020;SDS011;13798;48.858;9.092;2022-07-29T15:09:40;3.63;;;3.15;;
26020;SDS011;13798;48.858;9.092;2022-07-29T15:12:06;4.57;;;3.40;;
26020;SDS011;13798;48.858;9.092;2022-07-29T15:14:32;5.43;;;3.33;;
26020;SDS011;13798;48.858;9.092;2022-07-29T15:16:58;4.82;;;3.38;;
26020;SDS011;13798;48.858;9.092;2022-07-29T15:19:24;3.50;;;3.20;;
26020;SDS011;13798;48.858;9.092;2022-07-29T15:21:49;3.50;;;2.95;;
26020;SDS011;13798;48.858;9.092;2022-07-29T15:24:18;5.55;;;2.85;;
26020;SDS011;13798;48.858;9.092;2022-07-29T15:26:45;4.00;;;2.13;;
26020;SDS011;13798;48.858;9.092;2022-07-29T15:29:11;5.10;;;2.13;;
26020;SDS011;13798;48.858;9.092;2022-07-29T15:31:37;3.80;;;2.10;;
26020;SDS011;13798;48.858;9.092;2022-07-29T15:34:03;4.78;;;2.40;;
26020;SDS011;13798;48.858;9.092;2022-07-29T15:36:28;5.32;;;2.33;;
26020;SDS011;13798;48.858;9.092;2022-07-29T15:38:54;5.03;;;2.37;;
26020;SDS011;13798;48.858;9.092;2022-07-29T15:41:20;4.60;;;2.57;;
26020;SDS011;13798;48.858;9.092;2022-07-29T15:43:46;4.60;;;2.10;;
26020;SDS011;13798;48.858;9.092;2022-07-29T15:46:16;6.80;;;2.30;;
26020;SDS011;13798;48.858;9.092;2022-07-29T15:49:02;5.60;;;2.55;;
26020;SDS011;13798;48.858;9.092;2022-07-29T15:51:30;6.37;;;2.57;;
26020;SDS011;13798;48.858;9.092;2022-07-29T15:53:56;6.57;;;2.47;;
26020;SDS011;13798;48.858;9.092;2022-07-29T15:56:22;6.50;;;2.40;;
26020;SDS011;13798;48.858;9.092;2022-07-29T15:58:48;4.95;;;2.38;;
26020;SDS011;13798;48.858;9.092;2022-07-29T16:01:13;4.47;;;2.20;;
26020;SDS011;13798;48.858;9.092;2022-07-29T16:03:39;5.60;;;2.80;;
26020;SDS011;13798;48.858;9.092;2022-07-29T16:06:04;5.23;;;2.37;;
26020;SDS011;13798;48.858;9.092;2022-07-29T16:08:30;3.43;;;2.50;;
26020;SDS011;13798;48.858;9.092;2022-07-29T16:10:56;5.82;;;2.38;;
26020;SDS011;13798;48.858;9.092;2022-07-29T16:13:21;5.23;;;2.80;;
26020;SDS011;13798;48.858;9.092;2022-07-29T16:15:47;3.53;;;3.07;;
26020;SDS011;13798;48.858;9.092;2022-07-29T16:18:13;4.60;;;2.70;;
26020;SDS011;13798;48.858;9.092;2022-07-29T16:20:39;4.57;;;2.90;;
26020;SDS011;13798;48.858;9.092;2022-07-29T16:23:05;5.55;;;2.92;;
26020;SDS011;13798;48.858;9.092;2022-07-29T16:25:33;4.50;;;2.72;;
26020;SDS011;13798;48.858;9.092;2022-07-29T16:27:59;4.70;;;2.80;;
26020;SDS011;13798;48.858;9.092;2022-07-29T16:30:24;4.27;;;2.73;;
26020;SDS011;13798;48.858;9.092;2022-07-29T16:32:50;4.85;;;2.90;;
26020;SDS011;13798;48.858;9.092;2022-07-29T16:35:15;4.33;;;2.43;;
26020;SDS011;13798;48.858;9.092;2022-07-29T16:37:41;5.87;;;2.80;;
26020;SDS011;13798;48.858;9.092;2022-07-29T16:40:07;3.10;;;2.73;;
26020;SDS011;13798;48.858;9.092;2022-07-29T16:42:33;3.75;;;2.70;;
26020;SDS011;13798;48.858;9.092;2022-07-29T16:44:59;6.68;;;2.50;;
26020;SDS011;13798;48.858;9.092;2022-07-29T16:47:25;4.05;;;2.63;;
26020;SDS011;13798;48.858;9.092;2022-07-29T16:49:51;2.97;;;2.00;;
26020;SDS011;13798;48.858;9.092;2022-07-29T16:52:16;5.25;;;2.60;;
26020;SDS011;13798;48.858;9.092;2022-07-29T16:54:42;3.93;;;2.47;;
26020;SDS011;13798;48.858;9.092;2022-07-29T16:57:07;5.10;;;2.50;;
26020;SDS011;13798;48.858;9.092;2022-07-29T16:59:33;5.55;;;2.50;;
26020;SDS011;13798;48.858;9.092;2022-07-29T17:01:59;3.87;;;2.50;;
26020;SDS011;13798;48.858;9.092;2022-07-29T17:04:26;3.65;;;2.60;;
26020;SDS011;13798;48.858;9.092;2022-07-29T17:06:53;5.30;;;3.90;;
26020;SDS011;13798;48.858;9.092;2022-07-29T17:09:19;4.95;;;3.35;;
26020;SDS011;13798;48.858;9.092;2022-07-29T17:11:46;5.50;;;3.80;;
26020;SDS011;13798;48.858;9.092;2022-07-29T17:14:27;5.10;;;3.97;;
26020;SDS011;13798;48.858;9.092;2022-07-29T17:16:55;4.45;;;2.55;;
26020;SDS011;13798;48.858;9.092;2022-07-29T17:19:23;6.07;;;3.40;;
26020;SDS011;13798;48.858;9.092;2022-07-29T17:21:50;3.88;;;2.35;;
26020;SDS011;13798;48.858;9.092;2022-07-29T17:24:15;5.60;;;2.23;;
26020;SDS011;13798;48.858;9.092;2022-07-29T17:26:41;3.57;;;2.57;;
26020;SDS011;13798;48.858;9.092;2022-07-29T17:29:08;4.63;;;2.75;;
26020;SDS011;13798;48.858;9.092;2022-07-29T17:31:34;3.87;;;2.60;;
26020;SDS011;13798;48.858;9.092;2022-07-29T17:34:00;4.03;;;2.50;;
26020;SDS011;13798;48.858;9.092;2022-07-29T17:36:30;4.97;;;2.13;;
26020;SDS011;13798;48.858;9.092;2022-07-29T17:38:59;4.50;;;2.50;;
26020;SDS011;13798;48.858;9.092;2022-07-29T17:41:26;3.70;;;2.40;;
26020;SDS011;13798;48.858;9.092;2022-07-29T17:43:52;6.80;;;2.70;;
26020;SDS011;13798;48.858;9.092;2022-07-29T17:46:19;3.93;;;2.60;;
26020;SDS011;13798;48.858;9.092;2022-07-29T17:48:46;2.55;;;2.25;;
26020;SDS011;13798;48.858;9.092;2022-07-29T17:51:12;4.63;;;2.50;;
26020;SDS011;13798;48.858;9.092;2022-07-29T17:53:38;4.83;;;2.27;;
26020;SDS011;13798;48.858;9.092;2022-07-29T17:56:04;3.95;;;2.28;;
26020;SDS011;13798;48.858;9.092;2022-07-29T17:58:30;5.67;;;2.43;;
26020;SDS011;13798;48.858;9.092;2022-07-29T18:00:56;3.10;;;2.15;;
26020;SDS011;13798;48.858;9.092;2022-07-29T18:03:22;3.63;;;2.25;;
26020;SDS011;13798;48.858;9.092;2022-07-29T18:05:47;3.92;;;2.30;;
26020;SDS011;13798;48.858;9.092;2022-07-29T18:08:13;2.67;;;2.03;;
26020;SDS011;13798;48.858;9.092;2022-07-29T18:10:41;3.92;;;2.38;;
26020;SDS011;13798;48.858;9.092;2022-07-29T18:13:09;6.85;;;2.30;;
26020;SDS011;13798;48.858;9.092;2022-07-29T18:15:38;6.82;;;2.35;;
26020;SDS011;13798;48.858;9.092;2022-07-29T18:18:04;4.35;;;2.05;;
26020;SDS011;13798;48.858;9.092;2022-07-29T18:20:30;4.35;;;2.45;;
26020;SDS011;13798;48.858;9.092;2022-07-29T18:22:57;4.55;;;2.38;;
26020;SDS011;13798;48.858;9.092;2022-07-29T18:25:22;4.00;;;2.17;;
26020;SDS011;13798;48.858;9.092;2022-07-29T18:27:49;3.80;;;2.00;;
26020;SDS011;13798;48.858;9.092;2022-07-29T18:30:15;3.33;;;2.30;;
26020;SDS011;13798;48.858;9.092;2022-07-29T18:32:41;4.03;;;2.37;;
26020;SDS011;13798;48.858;9.092;2022-07-29T18:35:07;2.97;;;2.33;;
26020;SDS011;13798;48.858;9.092;2022-07-29T18:37:33;8.23;;;2.30;;
26020;SDS011;13798;48.858;9.092;2022-07-29T18:40:00;3.65;;;2.38;;
26020;SDS011;13798;48.858;9.092;2022-07-29T18:42:25;6.53;;;2.53;;
26020;SDS011;13798;48.858;9.092;2022-07-29T18:44:51;4.68;;;2.50;;
26020;SDS011;13798;48.858;9.092;2022-07-29T18:47:17;9.37;;;2.87;;
26020;SDS011;13798;48.858;9.092;2022-07-29T18:49:42;5.30;;;2.80;;
26020;SDS011;13798;48.858;9.092;2022-07-29T18:52:08;3.70;;;2.30;;
26020;SDS011;13798;48.858;9.092;2022-07-29T18:54:33;5.90;;;2.83;;
26020;SDS011;13798;48.858;9.092;2022-07-29T18:57:12;3.25;;;2.50;;
26020;SDS011;13798;48.858;9.092;2022-07-29T18:59:51;3.20;;;2.30;;
26020;SDS011;13798;48.858;9.092;2022-07-29T19:02:18;4.40;;;2.30;;
26020;SDS011;13798;48.858;9.092;2022-07-29T19:04:47;5.23;;;2.57;;
26020;SDS011;13798;48.858;9.092;2022-07-29T19:07:16;9.00;;;2.95;;
26020;SDS011;13798;48.858;9.092;2022-07-29T19:09:45;6.00;;;2.60;;
26020;SDS011;13798;48.858;9.092;2022-07-29T19:12:11;3.90;;;2.35;;
26020;SDS011;13798;48.858;9.092;2022-07-29T19:14:37;4.20;;;2.60;;
26020;SDS011;13798;48.858;9.092;2022-07-29T19:17:02;5.00;;;2.50;;
26020;SDS011;13798;48.858;9.092;2022-07-29T19:19:28;5.80;;;2.50;;
26020;SDS011;13798;48.858;9.092;2022-07-29T19:21:54;5.83;;;2.87;;
26020;SDS011;13798;48.858;9.092;2022-07-29T19:24:19;6.33;;;2.53;;
26020;SDS011;13798;48.858;9.092;2022-07-29T19:26:45;11.35;;;3.40;;
26020;SDS011;13798;48.858;9.092;2022-07-29T19:29:14;7.13;;;3.05;;
26020;SDS011;13798;48.858;9.092;2022-07-29T19:31:40;6.32;;;2.53;;
26020;SDS011;13798;48.858;9.092;2022-07-29T19:34:06;4.18;;;2.58;;
26020;SDS011;13798;48.858;9.092;2022-07-29T19:36:32;4.30;;;2.40;;
26020;SDS011;13798;48.858;9.092;2022-07-29T19:38:57;5.00;;;2.70;;
26020;SDS011;13798;48.858;9.092;2022-07-29T19:41:24;5.33;;;2.30;;
26020;SDS011;13798;48.858;9.092;2022-07-29T19:43:50;5.95;;;2.88;;
26020;SDS011;13798;48.858;9.092;2022-07-29T19:46:16;6.47;;;2.90;;
26020;SDS011;13798;48.858;9.092;2022-07-29T19:48:41;5.50;;;2.85;;
26020;SDS011;13798;48.858;9.092;2022-07-29T19:51:06;4.53;;;2.90;;
26020;SDS011;13798;48.858;9.092;2022-07-29T19:53:32;5.93;;;2.93;;
26020;SDS011;13798;48.858;9.092;2022-07-29T19:55:58;5.75;;;2.83;;
26020;SDS011;13798;48.858;9.092;2022-07-29T19:58:23;7.97;;;3.00;;
26020;SDS011;13798;48.858;9.092;2022-07-29T20:00:49;5.87;;;2.70;;
26020;SDS011;13798;48.858;9.092;2022-07-29T20:03:14;6.05;;;3.25;;
26020;SDS011;13798;48.858;9.092;2022-07-29T20:05:40;6.53;;;3.10;;
26020;SDS011;13798;48.858;9.092;2022-07-29T20:08:06;3.80;;;3.00;;
26020;SDS011;13798;48.858;9.092;2022-07-29T20:10:32;6.60;;;3.10;;
26020;SDS011;13798;48.858;9.092;2022-07-29T20:12:58;6.13;;;3.47;;
26020;SDS011;13798;48.858;9.092;2022-07-29T20:15:23;5.68;;;3.30;;
26020;SDS011;13798;48.858;9.092;2022-07-29T20:17:49;6.00;;;3.00;;
26020;SDS011;13798;48.858;9.092;2022-07-29T20:20:15;11.18;;;3.20;;
26020;SDS011;13798;48.858;9.092;2022-07-29T20:22:40;4.67;;;3.30;;
26020;SDS011;13798;48.858;9.092;2022-07-29T20:25:06;5.38;;;3.38;;
26020;SDS011;13798;48.858;9.092;2022-07-29T20:27:34;5.00;;;3.28;;
26020;SDS011;13798;48.858;9.092;2022-07-29T20:30:03;4.40;;;3.40;;
26020;SDS011;13798;48.858;9.092;2022-07-29T20:32:30;5.80;;;3.50;;
26020;SDS011;13798;48.858;9.092;2022-07-29T20:34:55;4.05;;;3.50;;
26020;SDS011;13798;48.858;9.092;2022-07-29T20:37:21;6.60;;;3.67;;
26020;SDS011;13798;48.858;9.092;2022-07-29T20:39:46;4.20;;;3.30;;
26020;SDS011;13798;48.858;9.092;2022-07-29T20:42:12;10.07;;;4.55;;
26020;SDS011;13798;48.858;9.092;2022-07-29T20:44:38;5.55;;;4.00;;
26020;SDS011;13798;48.858;9.092;2022-07-29T20:47:04;6.93;;;3.88;;
26020;SDS011;13798;48.858;9.092;2022-07-29T20:49:29;8.10;;;4.00;;
26020;SDS011;13798;48.858;9.092;2022-07-29T20:51:55;4.33;;;3.70;;
26020;SDS011;13798;48.858;9.092;2022-07-29T20:54:20;6.03;;;4.57;;
26020;SDS011;13798;48.858;9.092;2022-07-29T20:56:46;5.27;;;4.27;;
26020;SDS011;13798;48.858;9.092;2022-07-29T20:59:12;5.45;;;4.00;;
26020;SDS011;13798;48.858;9.092;2022-07-29T21:01:37;7.73;;;4.23;;
26020;SDS011;13798;48.858;9.092;2022-07-29T21:04:03;6.00;;;4.10;;
26020;SDS011;13798;48.858;9.092;2022-07-29T21:06:29;7.32;;;4.40;;
26020;SDS011;13798;48.858;9.092;2022-07-29T21:08:55;7.70;;;4.55;;
26020;SDS011;13798;48.858;9.092;2022-07-29T21:11:22;6.13;;;4.53;;
26020;SDS011;13798;48.858;9.092;2022-07-29T21:13:48;8.23;;;5.00;;
26020;SDS011;13798;48.858;9.092;2022-07-29T21:16:13;6.97;;;4.85;;
26020;SDS011;13798;48.858;9.092;2022-07-29T21:18:42;5.63;;;4.63;;
26020;SDS011;13798;48.858;9.092;2022-07-29T21:21:10;5.13;;;4.43;;
26020;SDS011;13798;48.858;9.092;2022-07-29T21:23:39;7.40;;;4.75;;
26020;SDS011;13798;48.858;9.092;2022-07-29T21:26:06;6.63;;;4.60;;
26020;SDS011;13798;48.858;9.092;2022-07-29T21:28:32;5.43;;;4.63;;
26020;SDS011;13798;48.858;9.092;2022-07-29T21:31:14;5.10;;;4.60;;
26020;SDS011;13798;48.858;9.092;2022-07-29T21:33:42;6.00;;;4.63;;
26020;SDS011;13798;48.858;9.092;2022-07-29T21:36:09;5.07;;;4.57;;
26020;SDS011;13798;48.858;9.092;2022-07-29T21:38:36;6.60;;;4.30;;
26020;SDS011;13798;48.858;9.092;2022-07-29T21:41:02;5.23;;;4.70;;
26020;SDS011;13798;48.858;9.092;2022-07-29T21:43:28;5.65;;;4.72;;
26020;SDS011;13798;48.858;9.092;2022-07-29T21:45:54;5.57;;;4.38;;
